createdAt,value
2019-05-02T00:02:07.173Z,2.70
2019-05-02T00:04:38.311Z,2.80
2019-05-02T00:07:14.614Z,3.02
2019-05-02T00:09:48.486Z,3.20
2019-05-02T00:12:19.734Z,2.92
2019-05-02T00:14:56.466Z,3.10
2019-05-02T00:17:27.496Z,3.42
2019-05-02T00:19:58.793Z,3.20
2019-05-02T00:22:30.858Z,2.80
2019-05-02T00:25:02.104Z,3.40
2019-05-02T00:27:37.721Z,3.83
2019-05-02T00:30:07.893Z,3.47
2019-05-02T00:32:39.116Z,3.35
2019-05-02T00:35:10.772Z,3.37
2019-05-02T00:37:42.201Z,3.08
2019-05-02T00:40:13.657Z,3.10
2019-05-02T00:42:44.815Z,3.22
2019-05-02T00:45:18.705Z,3.20
2019-05-02T00:48:02.872Z,3.20
2019-05-02T00:50:36.261Z,3.33
2019-05-02T00:53:11.996Z,12.00
2019-05-02T00:55:40.782Z,3.55
2019-05-02T00:58:12.052Z,4.75
2019-05-02T01:01:00.810Z,3.60
2019-05-02T01:03:34.101Z,4.92
2019-05-02T01:06:05.431Z,3.80
2019-05-02T01:08:37.008Z,4.35
2019-05-02T01:11:08.451Z,4.10
2019-05-02T01:13:40.006Z,4.08
2019-05-02T01:16:15.134Z,4.62
2019-05-02T01:18:44.930Z,4.00
2019-05-02T01:21:16.280Z,3.83
2019-05-02T01:23:47.583Z,4.37
2019-05-02T01:26:24.081Z,5.12
2019-05-02T01:28:56.591Z,5.03
2019-05-02T01:31:35.106Z,5.10
2019-05-02T01:34:08.085Z,5.55
2019-05-02T01:36:41.227Z,5.20
2019-05-02T01:39:14.069Z,5.47
2019-05-02T01:41:45.417Z,5.40
2019-05-02T01:44:16.763Z,5.30
2019-05-02T01:46:48.212Z,5.87
2019-05-02T01:49:21.822Z,6.20
2019-05-02T01:51:53.571Z,5.83
2019-05-02T01:54:25.023Z,6.92
2019-05-02T01:56:56.267Z,6.90
2019-05-02T01:59:29.020Z,6.80
2019-05-02T02:02:00.573Z,7.33
2019-05-02T02:04:32.054Z,6.40
2019-05-02T02:07:04.897Z,7.30
2019-05-02T02:09:38.904Z,6.05
2019-05-02T02:12:09.846Z,6.28
2019-05-02T02:14:43.072Z,5.42
2019-05-02T02:17:15.619Z,6.15
2019-05-02T02:19:48.922Z,6.33
2019-05-02T02:22:39.365Z,6.72
2019-05-02T02:25:32.226Z,5.55
2019-05-02T02:28:02.618Z,6.15
2019-05-02T02:30:33.938Z,5.40
2019-05-02T02:33:07.404Z,5.30
2019-05-02T02:35:49.536Z,4.95
2019-05-02T02:38:11.795Z,4.45
2019-05-02T02:40:43.122Z,4.95
2019-05-02T02:43:32.952Z,4.83
2019-05-02T02:45:57.651Z,4.90
2019-05-02T02:48:33.829Z,4.53
2019-05-02T02:51:00.896Z,4.42
2019-05-02T02:53:32.390Z,4.67
2019-05-02T02:56:07.281Z,4.55
2019-05-02T02:58:45.203Z,4.78
2019-05-02T03:01:11.628Z,5.35
2019-05-02T03:03:42.880Z,5.65
2019-05-02T03:06:14.235Z,5.80
2019-05-02T03:08:48.770Z,5.97
2019-05-02T03:11:23.781Z,6.62
2019-05-02T03:14:05.536Z,6.72
2019-05-02T03:16:33.156Z,7.97
2019-05-02T03:19:04.694Z,9.30
2019-05-02T03:21:38.074Z,9.28
2019-05-02T03:24:09.542Z,9.85
2019-05-02T03:26:40.689Z,10.60
2019-05-02T03:29:13.750Z,8.50
2019-05-02T03:31:45.720Z,8.93
2019-05-02T03:34:17.485Z,8.88
2019-05-02T03:36:48.845Z,8.28
2019-05-02T03:39:19.983Z,8.35
2019-05-02T03:41:55.481Z,7.90
2019-05-02T03:44:26.305Z,7.50
2019-05-02T03:47:02.357Z,7.47
2019-05-02T03:49:31.110Z,6.90
2019-05-02T03:52:05.549Z,7.40
2019-05-02T03:54:35.557Z,7.42
2019-05-02T03:57:06.903Z,6.45
2019-05-02T03:59:41.776Z,6.95
2019-05-02T04:02:14.023Z,7.10
2019-05-02T04:04:44.710Z,6.78
2019-05-02T04:07:16.077Z,7.03
2019-05-02T04:09:47.196Z,7.85
2019-05-02T04:12:21.829Z,7.78
2019-05-02T04:14:55.991Z,7.40
2019-05-02T04:17:29.113Z,7.37
2019-05-02T04:19:59.788Z,7.50
2019-05-02T04:22:31.331Z,8.03
2019-05-02T04:25:06.249Z,7.92
2019-05-02T04:27:36.091Z,8.55
2019-05-02T04:30:11.604Z,9.53
2019-05-02T04:32:42.933Z,8.80
2019-05-02T04:35:14.091Z,9.53
2019-05-02T04:37:46.379Z,9.18
2019-05-02T04:40:18.235Z,9.80
2019-05-02T04:43:05.468Z,9.05
2019-05-02T04:45:38.297Z,8.73
2019-05-02T04:48:03.150Z,9.80
2019-05-02T04:50:31.208Z,8.55
2019-05-02T04:53:02.767Z,8.23
2019-05-02T04:55:34.011Z,8.90
2019-05-02T04:58:08.151Z,8.53
2019-05-02T05:00:44.974Z,7.62
2019-05-02T05:03:15.478Z,7.67
2019-05-02T05:05:45.136Z,7.70
2019-05-02T05:08:25.768Z,8.00
2019-05-02T05:10:49.572Z,8.08
2019-05-02T05:13:23.285Z,7.95
2019-05-02T05:15:54.321Z,8.73
2019-05-02T05:18:27.381Z,8.53
2019-05-02T05:20:59.763Z,8.73
2019-05-02T05:23:32.758Z,8.85
2019-05-02T05:26:04.797Z,8.63
2019-05-02T05:28:40.530Z,8.73
2019-05-02T05:31:08.955Z,8.68
2019-05-02T05:33:40.405Z,8.33
2019-05-02T05:36:11.954Z,8.15
2019-05-02T05:38:43.407Z,8.28
2019-05-02T05:41:17.630Z,7.60
2019-05-02T05:43:49.972Z,8.03
2019-05-02T05:46:20.420Z,8.10
2019-05-02T05:48:51.668Z,8.38
2019-05-02T05:51:23.013Z,8.10
2019-05-02T05:53:58.998Z,8.78
2019-05-02T05:56:27.976Z,8.10
2019-05-02T05:59:01.488Z,9.13
2019-05-02T06:01:35.818Z,8.15
2019-05-02T06:04:08.027Z,9.28
2019-05-02T06:06:39.643Z,9.18
2019-05-02T06:09:13.732Z,9.38
2019-05-02T06:11:44.251Z,9.15
2019-05-02T06:14:19.935Z,8.68
2019-05-02T06:16:51.704Z,9.48
2019-05-02T06:19:21.443Z,9.98
2019-05-02T06:21:52.503Z,9.23
2019-05-02T06:24:23.935Z,14.10
2019-05-02T06:26:56.022Z,10.20
2019-05-02T06:29:27.362Z,10.13
2019-05-02T06:32:02.228Z,9.08
2019-05-02T06:34:33.587Z,9.45
2019-05-02T06:37:08.148Z,8.55
2019-05-02T06:39:38.063Z,8.13
2019-05-02T06:42:09.219Z,8.45
2019-05-02T06:44:40.392Z,8.35
2019-05-02T06:47:11.618Z,8.33
2019-05-02T06:49:42.899Z,7.78
2019-05-02T06:52:14.054Z,7.62
2019-05-02T06:54:45.295Z,10.15
2019-05-02T06:57:19.032Z,7.65
2019-05-02T06:59:49.995Z,7.92
2019-05-02T07:02:22.061Z,8.03
2019-05-02T07:04:54.684Z,8.48
2019-05-02T07:07:31.148Z,8.45
2019-05-02T07:09:58.981Z,8.33
2019-05-02T07:12:30.093Z,7.90
2019-05-02T07:15:01.899Z,7.80
2019-05-02T07:17:38.755Z,7.75
2019-05-02T07:20:10.479Z,7.43
2019-05-02T07:22:41.817Z,8.55
2019-05-02T07:25:12.979Z,9.38
2019-05-02T07:27:44.083Z,8.70
2019-05-02T07:30:15.412Z,9.48
2019-05-02T07:32:46.655Z,8.00
2019-05-02T07:35:24.128Z,9.78
2019-05-02T07:37:50.901Z,9.08
2019-05-02T07:40:22.169Z,10.20
2019-05-02T07:42:53.369Z,8.83
2019-05-02T07:45:24.561Z,9.35
2019-05-02T07:47:55.758Z,10.23
2019-05-02T07:50:26.995Z,9.98
2019-05-02T07:52:58.134Z,9.80
2019-05-02T07:55:30.713Z,9.48
2019-05-02T07:58:06.889Z,9.18
2019-05-02T08:00:37.040Z,8.88
2019-05-02T08:03:07.879Z,8.63
2019-05-02T08:05:39.179Z,10.82
2019-05-02T08:08:10.515Z,8.55
2019-05-02T08:10:42.753Z,10.08
2019-05-02T08:13:17.561Z,10.90
2019-05-02T08:15:50.783Z,11.43
2019-05-02T08:18:20.508Z,9.63
2019-05-02T08:20:56.021Z,10.93
2019-05-02T08:23:25.924Z,8.23
2019-05-02T08:25:57.308Z,7.65
2019-05-02T08:28:30.103Z,8.40
2019-05-02T08:31:01.318Z,11.75
2019-05-02T08:33:34.911Z,8.73
2019-05-02T08:36:05.115Z,9.90
2019-05-02T08:38:36.843Z,7.30
2019-05-02T08:41:08.010Z,7.62
2019-05-02T08:43:40.264Z,6.78
2019-05-02T08:46:14.422Z,6.03
2019-05-02T08:48:44.885Z,6.17
2019-05-02T08:51:16.182Z,5.67
2019-05-02T08:53:47.368Z,7.37
2019-05-02T08:56:21.290Z,6.92
2019-05-02T08:58:51.485Z,7.05
2019-05-02T09:01:34.577Z,8.18
2019-05-02T09:03:57.033Z,7.95
2019-05-02T09:06:28.412Z,7.95
2019-05-02T09:08:59.647Z,7.92
2019-05-02T09:11:30.949Z,8.00
2019-05-02T09:14:02.222Z,9.25
2019-05-02T09:16:33.499Z,8.80
2019-05-02T09:19:04.868Z,9.20
2019-05-02T09:21:36.167Z,10.40
2019-05-02T09:24:08.377Z,9.25
2019-05-02T09:26:42.451Z,8.05
2019-05-02T09:29:13.068Z,9.53
2019-05-02T09:31:46.127Z,9.03
2019-05-02T09:34:21.586Z,9.80
2019-05-02T09:36:49.831Z,8.50
2019-05-02T09:39:22.666Z,8.93
2019-05-02T09:41:53.687Z,8.78
2019-05-02T09:44:24.874Z,7.45
2019-05-02T09:46:57.133Z,8.18
2019-05-02T09:49:28.521Z,7.72
2019-05-02T09:52:01.292Z,9.38
2019-05-02T09:54:36.847Z,8.75
2019-05-02T09:57:05.276Z,8.00
2019-05-02T09:59:36.379Z,9.35
2019-05-02T10:02:08.340Z,8.73
2019-05-02T10:04:43.456Z,10.05
2019-05-02T10:07:15.316Z,9.55
2019-05-02T10:09:45.188Z,11.57
2019-05-02T10:12:18.038Z,10.68
2019-05-02T10:14:52.682Z,10.13
2019-05-02T10:17:26.678Z,9.18
2019-05-02T10:19:59.365Z,7.78
2019-05-02T10:22:36.860Z,7.03
2019-05-02T10:25:03.884Z,7.25
2019-05-02T10:27:38.528Z,6.30
2019-05-02T10:30:14.706Z,6.50
2019-05-02T10:32:42.732Z,7.10
2019-05-02T10:35:15.565Z,7.70
2019-05-02T10:37:46.756Z,7.40
2019-05-02T10:40:18.047Z,6.20
2019-05-02T10:42:49.307Z,6.53
2019-05-02T10:45:22.557Z,5.25
2019-05-02T10:47:55.584Z,6.70
2019-05-02T10:50:42.187Z,4.70
2019-05-02T10:53:15.626Z,4.33
2019-05-02T10:55:46.087Z,4.37
2019-05-02T10:58:17.443Z,7.78
2019-05-02T11:00:48.544Z,4.78
2019-05-02T11:03:24.099Z,4.28
2019-05-02T11:06:02.698Z,5.70
2019-05-02T11:08:32.086Z,5.22
2019-05-02T11:11:06.414Z,6.12
2019-05-02T11:13:42.478Z,5.70
2019-05-02T11:16:27.832Z,5.92
2019-05-02T11:19:02.454Z,5.45
2019-05-02T11:21:33.496Z,6.47
2019-05-02T11:24:04.825Z,6.05
2019-05-02T11:26:36.029Z,5.47
2019-05-02T11:29:07.510Z,6.00
2019-05-02T11:31:38.942Z,4.85
2019-05-02T11:34:12.187Z,5.12
2019-05-02T11:36:43.146Z,4.58
2019-05-02T11:39:21.634Z,4.75
2019-05-02T11:41:47.143Z,4.47
2019-05-02T11:44:18.609Z,4.17
2019-05-02T11:46:51.926Z,2.65
2019-05-02T11:49:22.940Z,2.20
2019-05-02T11:51:57.048Z,2.50
2019-05-02T11:54:27.836Z,2.20
2019-05-02T11:56:59.056Z,1.70
2019-05-02T11:59:32.012Z,2.22
2019-05-02T12:02:22.045Z,3.37
2019-05-02T12:04:55.596Z,3.05
2019-05-02T12:07:26.427Z,1.65
2019-05-02T12:09:57.780Z,1.90
2019-05-02T12:12:34.253Z,2.00
2019-05-02T12:15:02.575Z,1.80
2019-05-02T12:17:33.943Z,1.50
2019-05-02T12:20:06.522Z,1.57
2019-05-02T12:22:48.095Z,1.42
2019-05-02T12:25:19.562Z,1.57
2019-05-02T12:27:52.555Z,1.57
2019-05-02T12:30:23.752Z,1.77
2019-05-02T12:32:56.699Z,1.55
2019-05-02T12:35:27.903Z,1.77
2019-05-02T12:37:59.101Z,1.60
2019-05-02T12:40:32.455Z,1.27
2019-05-02T12:43:03.876Z,1.85
2019-05-02T12:45:35.636Z,1.62
2019-05-02T12:48:06.860Z,1.82
2019-05-02T12:50:38.133Z,1.77
2019-05-02T12:53:09.342Z,1.42
2019-05-02T12:55:42.151Z,1.75
2019-05-02T12:58:13.322Z,1.40
2019-05-02T13:00:45.191Z,1.80
2019-05-02T13:03:33.712Z,1.87
2019-05-02T13:06:05.039Z,1.70
2019-05-02T13:08:38.023Z,1.65
2019-05-02T13:11:19.764Z,2.22
2019-05-02T13:13:53.369Z,2.85
2019-05-02T13:16:24.847Z,3.15
2019-05-02T13:18:57.205Z,3.30
2019-05-02T13:21:50.127Z,2.95
2019-05-02T13:24:29.174Z,2.67
2019-05-02T13:26:59.274Z,1.90
2019-05-02T13:29:32.138Z,2.27
2019-05-02T13:32:18.576Z,2.62
2019-05-02T13:34:54.116Z,2.62
2019-05-02T13:37:23.888Z,2.58
2019-05-02T13:39:58.301Z,2.77
2019-05-02T13:42:33.723Z,2.98
2019-05-02T13:45:12.699Z,3.15
2019-05-02T13:47:49.261Z,3.02
2019-05-02T13:50:26.401Z,3.00
2019-05-02T13:53:02.459Z,3.12
2019-05-02T13:55:35.437Z,2.33
2019-05-02T13:58:06.480Z,2.50
2019-05-02T14:00:50.095Z,2.70
2019-05-02T14:03:22.741Z,2.30
2019-05-02T14:05:54.559Z,2.30
2019-05-02T14:08:37.141Z,1.92
2019-05-02T14:11:10.147Z,2.87
2019-05-02T14:13:42.546Z,2.50
2019-05-02T14:16:13.872Z,2.67
2019-05-02T14:18:45.083Z,2.35
2019-05-02T14:21:16.370Z,1.80
2019-05-02T14:23:49.187Z,2.67
2019-05-02T14:26:29.627Z,1.55
2019-05-02T14:28:53.465Z,2.33
2019-05-02T14:31:24.654Z,3.70
2019-05-02T14:34:13.689Z,2.33
2019-05-02T14:36:45.303Z,2.72
2019-05-02T14:39:17.008Z,2.90
2019-05-02T14:41:48.235Z,2.40
2019-05-02T14:44:23.189Z,2.00
2019-05-02T14:46:53.697Z,2.20
2019-05-02T14:49:25.696Z,2.22
2019-05-02T14:52:02.941Z,3.20
2019-05-02T14:54:32.470Z,2.60
2019-05-02T14:57:08.327Z,2.37
2019-05-02T14:59:39.676Z,2.95
2019-05-02T15:02:13.091Z,2.35
2019-05-02T15:04:48.644Z,2.80
2019-05-02T15:07:17.575Z,4.70
2019-05-02T15:09:50.183Z,5.37
2019-05-02T15:12:22.199Z,4.08
2019-05-02T15:14:57.514Z,3.50
2019-05-02T15:17:27.995Z,3.50
2019-05-02T15:19:59.482Z,3.35
2019-05-02T15:22:37.190Z,3.37
2019-05-02T15:25:07.999Z,5.30
2019-05-02T15:27:44.944Z,6.78
2019-05-02T15:30:15.989Z,5.28
2019-05-02T15:32:48.937Z,3.12
2019-05-02T15:35:23.045Z,5.00
2019-05-02T15:37:56.606Z,2.90
2019-05-02T15:43:02.813Z,5.45
2019-05-02T15:45:36.654Z,3.80
2019-05-02T15:48:08.415Z,3.75
2019-05-02T15:50:48.745Z,3.55
2019-05-02T15:53:14.326Z,3.05
2019-05-02T15:55:45.499Z,4.08
2019-05-02T15:58:26.143Z,3.02
2019-05-02T16:01:09.284Z,3.10
2019-05-02T16:03:45.861Z,2.65
2019-05-02T16:06:16.450Z,2.33
2019-05-02T16:08:48.437Z,2.42
2019-05-02T16:11:19.709Z,2.30
2019-05-02T16:13:55.929Z,1.70
2019-05-02T16:16:25.714Z,1.70
2019-05-02T16:18:57.005Z,2.47
2019-05-02T16:21:38.843Z,2.35
2019-05-02T16:24:23.322Z,2.02
2019-05-02T16:26:57.116Z,2.22
2019-05-02T16:29:29.139Z,2.22
2019-05-02T16:32:05.508Z,2.22
2019-05-02T16:34:52.079Z,2.02
2019-05-02T16:37:23.403Z,1.98
2019-05-02T16:39:56.871Z,2.98
2019-05-02T16:42:28.300Z,1.90
2019-05-02T16:44:59.467Z,1.85
2019-05-02T16:47:32.470Z,2.65
2019-05-02T16:50:08.694Z,3.30
2019-05-02T16:52:43.817Z,3.22
2019-05-02T16:55:20.071Z,2.33
2019-05-02T16:57:45.823Z,2.92
2019-05-02T17:00:19.908Z,3.45
2019-05-02T17:02:54.459Z,2.98
2019-05-02T17:05:32.405Z,2.67
2019-05-02T17:08:23.449Z,3.30
2019-05-02T17:10:57.025Z,2.62
2019-05-02T17:13:32.753Z,2.30
2019-05-02T17:16:06.900Z,2.67
2019-05-02T17:18:34.715Z,3.00
2019-05-02T17:21:08.794Z,2.67
2019-05-02T17:23:42.818Z,2.90
2019-05-02T17:26:13.152Z,2.85
2019-05-02T17:28:47.096Z,3.30
2019-05-02T17:31:20.600Z,3.08
2019-05-02T17:33:54.408Z,3.08
2019-05-02T17:36:28.406Z,3.10
2019-05-02T17:38:59.463Z,3.83
2019-05-02T17:41:31.816Z,4.10
2019-05-02T17:44:03.309Z,6.47
2019-05-02T17:46:36.586Z,9.05
2019-05-02T17:49:07.503Z,8.80
2019-05-02T17:51:49.595Z,8.20
2019-05-02T17:54:22.679Z,9.48
2019-05-02T17:56:57.618Z,11.97
2019-05-02T17:59:34.411Z,11.57
2019-05-02T18:02:06.437Z,13.90
2019-05-02T18:04:35.615Z,14.18
2019-05-02T18:07:06.892Z,16.77
2019-05-02T18:09:38.219Z,18.62
2019-05-02T18:12:12.585Z,19.50
2019-05-02T18:14:43.428Z,20.65
2019-05-02T18:17:15.710Z,20.52
2019-05-02T18:19:46.972Z,20.48
2019-05-02T18:22:25.535Z,21.30
2019-05-02T18:24:52.664Z,21.52
2019-05-02T18:27:25.465Z,22.05
2019-05-02T18:29:56.776Z,26.55
2019-05-02T18:32:27.978Z,28.10
2019-05-02T18:35:06.814Z,24.18
2019-05-02T18:37:42.816Z,25.30
2019-05-02T18:40:13.204Z,26.97
2019-05-02T18:42:46.389Z,31.35
2019-05-02T18:45:27.342Z,26.65
2019-05-02T18:48:02.433Z,23.75
2019-05-02T18:50:37.006Z,20.77
2019-05-02T18:53:08.487Z,20.27
2019-05-02T18:55:39.824Z,17.73
2019-05-02T18:58:12.825Z,16.87
2019-05-02T19:00:45.456Z,17.65
2019-05-02T19:03:17.222Z,15.85
2019-05-02T19:05:51.534Z,16.17
2019-05-02T19:08:31.114Z,16.07
2019-05-02T19:11:08.493Z,17.23
2019-05-02T19:13:32.734Z,16.48
2019-05-02T19:16:03.401Z,17.92
2019-05-02T19:18:34.751Z,19.87
2019-05-02T19:21:06.033Z,27.50
2019-05-02T19:23:38.346Z,26.80
2019-05-02T19:26:12.395Z,29.50
2019-05-02T19:28:44.333Z,24.15
2019-05-02T19:31:15.759Z,28.05
2019-05-02T19:33:46.893Z,20.52
2019-05-02T19:36:24.411Z,25.60
2019-05-02T19:38:52.473Z,26.20
2019-05-02T19:41:31.984Z,28.60
2019-05-02T19:44:03.128Z,25.17
2019-05-02T19:46:38.848Z,23.38
2019-05-02T19:49:12.340Z,22.25
2019-05-02T19:51:41.384Z,19.05
2019-05-02T19:54:13.064Z,19.50
2019-05-02T19:56:47.425Z,18.42
2019-05-02T19:59:24.507Z,15.83
2019-05-02T20:01:52.172Z,12.73
2019-05-02T20:04:24.651Z,17.50
2019-05-02T20:06:56.131Z,24.32
2019-05-02T20:09:27.210Z,33.83
2019-05-02T20:11:58.416Z,31.23
2019-05-02T20:14:29.616Z,50.48
2019-05-02T20:17:02.229Z,91.63
2019-05-02T20:19:35.387Z,78.15
2019-05-02T20:22:08.334Z,146.53
2019-05-02T20:24:49.185Z,161.30
2019-05-02T20:27:22.502Z,163.00
2019-05-02T20:29:54.027Z,170.38
2019-05-02T20:32:25.816Z,171.75
2019-05-02T20:34:57.169Z,204.55
2019-05-02T20:37:28.279Z,220.33
2019-05-02T20:39:59.460Z,280.77
2019-05-02T20:42:32.204Z,665.00
2019-05-02T20:45:04.244Z,167.07
2019-05-02T20:47:35.807Z,174.02
2019-05-02T20:50:06.845Z,164.90
2019-05-02T20:52:38.105Z,137.03
2019-05-02T20:55:09.446Z,79.47
2019-05-02T20:57:42.343Z,75.20
2019-05-02T21:00:19.853Z,54.80
2019-05-02T21:02:51.906Z,55.48
2019-05-02T21:05:25.934Z,61.77
2019-05-02T21:08:01.789Z,71.92
2019-05-02T21:10:35.027Z,91.67
2019-05-02T21:13:06.401Z,88.45
2019-05-02T21:15:37.684Z,87.40
2019-05-02T21:18:08.932Z,86.05
2019-05-02T21:20:41.809Z,80.70
2019-05-02T21:23:13.254Z,68.80
2019-05-02T21:25:45.278Z,68.92
2019-05-02T21:28:17.024Z,72.15
2019-05-02T21:30:48.241Z,65.90
2019-05-02T21:33:33.914Z,69.62
2019-05-02T21:36:05.831Z,67.27
2019-05-02T21:38:37.057Z,59.27
2019-05-02T21:41:10.209Z,46.45
2019-05-02T21:43:42.544Z,50.05
2019-05-02T21:46:13.810Z,96.45
2019-05-02T21:48:45.043Z,32.45
2019-05-02T21:51:35.777Z,133.80
2019-05-02T21:54:13.263Z,28.32
2019-05-02T21:56:57.865Z,40.25
2019-05-02T21:59:32.601Z,26.68
2019-05-02T22:02:06.538Z,21.68
2019-05-02T22:04:39.270Z,14.53
2019-05-02T22:07:12.155Z,10.72
2019-05-02T22:09:44.594Z,10.55
2019-05-02T22:12:15.920Z,12.85
2019-05-02T22:14:47.240Z,9.93
2019-05-02T22:17:18.514Z,9.93
2019-05-02T22:19:49.857Z,10.05
2019-05-02T22:22:22.703Z,20.97
2019-05-02T22:24:53.826Z,26.60
2019-05-02T22:27:25.129Z,31.30
2019-05-02T22:29:56.525Z,31.33
2019-05-02T22:32:27.722Z,25.00
2019-05-02T22:34:59.045Z,14.30
2019-05-02T22:37:30.234Z,13.15
2019-05-02T22:40:03.911Z,8.50
2019-05-02T22:42:36.743Z,7.22
2019-05-02T22:45:08.169Z,7.53
2019-05-02T22:47:39.556Z,7.55
2019-05-02T22:50:13.897Z,5.50
2019-05-02T22:52:44.918Z,6.55
2019-05-02T22:55:17.190Z,10.40
2019-05-02T22:57:48.493Z,6.15
2019-05-02T23:00:21.587Z,6.08
2019-05-02T23:02:52.828Z,6.40
2019-05-02T23:05:24.068Z,7.35
2019-05-02T23:07:55.309Z,8.53
2019-05-02T23:10:26.637Z,10.95
2019-05-02T23:12:57.963Z,7.30
2019-05-02T23:15:29.541Z,44.70
2019-05-02T23:18:01.679Z,12.65
2019-05-02T23:20:34.172Z,9.50
2019-05-02T23:23:05.556Z,7.80
2019-05-02T23:25:55.010Z,10.60
2019-05-02T23:28:31.805Z,14.23
2019-05-02T23:31:04.373Z,15.53
2019-05-02T23:33:53.445Z,14.23
2019-05-02T23:36:24.781Z,11.08
2019-05-02T23:38:56.057Z,11.63
2019-05-02T23:41:27.642Z,10.20
2019-05-02T23:43:58.835Z,9.40
2019-05-02T23:46:30.155Z,9.93
2019-05-02T23:49:01.981Z,10.80
2019-05-02T23:51:33.467Z,11.08
2019-05-02T23:54:04.660Z,12.90
2019-05-02T23:56:36.878Z,14.28
2019-05-02T23:59:08.171Z,13.58
